Main page
METAR-TAF:

METAR-TAF

Airports :

Meriden Markham Municipal Airport

Meriden, Connecticut, United States

latitude: 41-30-35N, longitude: 072-49-40W, elevation: 102 ft

Current weather observation

The report was made 36 minutes ago, at 01:53 UTC
Wind 7 mph from the South
Temperature 45°F
Humidity 57%
Pressure 29.96 in. Hg
Visibility: 10 miles
Broken clouds at a height of 9500 ft

METAR: KMMK 250153Z AUTO 18006KT 10SM BKN095 07/M01 A2996 RMK AO2 SLP146 T00671006

Time: 21:29 (02:29 UTC)


TAF: missing

Weather observations and forecasts of more than 4000 airports (METAR and TAF reports).

The available stations are represented by yellow and red dots on the map.

Hover mouse over dot to see the name of the station.

Then click to see weather observations and forecasts.

To change the map : click on the green buttons with a black cross to zoom in, on the green button with a dash to zoom out, or on the green arrows for adjacent maps.


METAR-TAF: